Wetterstation Vordersexau
Wetterdaten: Woche 30.01.23 - 05.02.23 (KW5)
Datum Zeit Temp. A. Feuchte A. Luftdruck Regen Wind Richtung Taupunkt Windchill Windben
30.01.2023 00:00 -2,8 C 92 % 1022,2 hPa 0,0 l/m 1,1 km/h (1 Bft) NO -3,9 C -2,8 C 2,5 km/h (1 Bft)
30.01.2023 01:00 -3,6 C 93 % 1021,3 hPa 0,0 l/m 1,1 km/h (1 Bft) NO -4,6 C -3,6 C 2,5 km/h (1 Bft)
30.01.2023 02:00 -3,7 C 93 % 1020,9 hPa 0,0 l/m 2,5 km/h (1 Bft) N -4,7 C -3,7 C 3,6 km/h (1 Bft)
30.01.2023 03:00 -3,8 C 94 % 1022,3 hPa 0,0 l/m 0,0 km/h (0 Bft) N -4,6 C -3,8 C 2,5 km/h (1 Bft)
30.01.2023 04:00 -3,2 C 91 % 1021,8 hPa 0,0 l/m 0,0 km/h (0 Bft) O -4,5 C -3,2 C 0,0 km/h (0 Bft)
30.01.2023 05:00 -3,2 C 94 % 1021,1 hPa 0,0 l/m 3,6 km/h (1 Bft) W-SW -4,0 C -3,2 C 3,6 km/h (1 Bft)
30.01.2023 06:00 -0,7 C 85 % 1021,5 hPa 0,0 l/m 9,7 km/h (2 Bft) S-SW -2,9 C -4,0 C 13,3 km/h (3 Bft)
30.01.2023 07:00 0,2 C 82 % 1021,4 hPa 0,0 l/m 5,0 km/h (1 Bft) SW -2,5 C 0,2 C 7,2 km/h (2 Bft)
30.01.2023 08:00 0,1 C 80 % 1020,9 hPa 0,0 l/m 6,1 km/h (2 Bft) W-SW -2,9 C 0,1 C 9,7 km/h (2 Bft)
30.01.2023 09:00 0,7 C 80 % 1021,4 hPa 0,0 l/m 14,8 km/h (3 Bft) SW -2,3 C -6,0 C 24,5 km/h (4 Bft)
30.01.2023 10:00 1,1 C 79 % 1021,6 hPa 0,0 l/m 8,6 km/h (2 Bft) SW -2,1 C -1,0 C 13,3 km/h (3 Bft)
30.01.2023 11:00 1,4 C 78 % 1021,3 hPa 0,0 l/m 9,7 km/h (2 Bft) SW -2,0 C -1,7 C 13,3 km/h (3 Bft)
30.01.2023 12:00 2,0 C 78 % 1020,3 hPa 0,0 l/m 12,2 km/h (2 Bft) S-SW -1,4 C -2,8 C 20,9 km/h (4 Bft)
30.01.2023 13:00 2,4 C 78 % 1019,9 hPa 0,0 l/m 15,8 km/h (3 Bft) SW -1,0 C -4,5 C 25,6 km/h (4 Bft)
30.01.2023 14:00 3,0 C 80 % 1019,4 hPa 0,0 l/m 13,3 km/h (3 Bft) W-SW -0,1 C -2,4 C 22,0 km/h (4 Bft)
30.01.2023 15:00 3,1 C 80 % 1019,8 hPa 0,0 l/m 9,7 km/h (2 Bft) W-SW -0,0 C 0,2 C 13,3 km/h (3 Bft)
30.01.2023 16:00 3,0 C 83 % 1020,6 hPa 0,0 l/m 11,2 km/h (2 Bft) W-SW 0,4 C -1,0 C 13,3 km/h (3 Bft)
30.01.2023 17:00 2,8 C 86 % 1021,3 hPa 0,0 l/m 9,7 km/h (2 Bft) SW 0,7 C -0,1 C 13,3 km/h (3 Bft)
30.01.2023 18:00 2,9 C 85 % 1022,0 hPa 0,0 l/m 7,2 km/h (2 Bft) W 0,6 C 2,1 C 11,2 km/h (2 Bft)
30.01.2023 19:00 2,8 C 85 % 1022,8 hPa 0,0 l/m 2,5 km/h (1 Bft) W 0,5 C 2,8 C 2,5 km/h (1 Bft)
30.01.2023 20:00 2,8 C 85 % 1022,7 hPa 0,0 l/m 2,5 km/h (1 Bft) N 0,5 C 2,8 C 3,6 km/h (1 Bft)
30.01.2023 21:00 2,7 C 86 % 1023,5 hPa 0,0 l/m 0,0 km/h (0 Bft) W-NW 0,6 C 2,7 C 0,0 km/h (0 Bft)
30.01.2023 22:00 2,8 C 86 % 1024,3 hPa 0,0 l/m 1,1 km/h (1 Bft) N 0,7 C 2,8 C 2,5 km/h (1 Bft)
30.01.2023 23:00 2,6 C 87 % 1024,9 hPa 0,0 l/m 0,0 km/h (0 Bft) N 0,7 C 2,6 C 2,5 km/h (1 Bft)
31.01.2023 00:00 2,0 C 89 % 1025,0 hPa 0,0 l/m 0,0 km/h (0 Bft) N 0,4 C 2,0 C 0,0 km/h (0 Bft)
31.01.2023 01:00 0,7 C 93 % 1024,5 hPa 0,0 l/m 0,0 km/h (0 Bft) W-NW -0,3 C 0,7 C 0,0 km/h (0 Bft)
31.01.2023 02:00 -1,0 C 95 % 1024,2 hPa 0,0 l/m 1,1 km/h (1 Bft) W-NW -1,7 C -1,0 C 2,5 km/h (1 Bft)
31.01.2023 03:00 -1,4 C 96 % 1024,5 hPa 0,0 l/m 2,5 km/h (1 Bft) W-NW -2,0 C -1,4 C 3,6 km/h (1 Bft)
31.01.2023 04:00 -0,8 C 97 % 1024,4 hPa 0,0 l/m 2,5 km/h (1 Bft) N -1,2 C -0,8 C 3,6 km/h (1 Bft)
31.01.2023 05:00 -1,2 C 97 % 1024,4 hPa 0,0 l/m 0,0 km/h (0 Bft) W-NW -1,6 C -1,2 C 0,0 km/h (0 Bft)
31.01.2023 06:00 -1,9 C 98 % 1024,6 hPa 0,0 l/m 1,1 km/h (1 Bft) N -2,2 C -1,9 C 2,5 km/h (1 Bft)
31.01.2023 07:00 -2,1 C 98 % 1024,9 hPa 0,0 l/m 0,0 km/h (0 Bft) N -2,4 C -2,1 C 0,0 km/h (0 Bft)
31.01.2023 08:00 -2,8 C 98 % 1025,1 hPa 0,0 l/m 0,0 km/h (0 Bft) N -3,1 C -2,8 C 0,0 km/h (0 Bft)
31.01.2023 09:00 -0,9 C 98 % 1025,5 hPa 0,0 l/m 0,0 km/h (0 Bft) W-NW -1,2 C -0,9 C 0,0 km/h (0 Bft)
31.01.2023 10:00 1,7 C 91 % 1025,1 hPa 0,0 l/m 3,6 km/h (1 Bft) N 0,4 C 1,7 C 6,1 km/h (2 Bft)
31.01.2023 11:00 3,0 C 86 % 1025,5 hPa 0,0 l/m 0,0 km/h (0 Bft) W 0,9 C 3,0 C 2,5 km/h (1 Bft)
31.01.2023 12:00 4,4 C 81 % 1025,2 hPa 0,0 l/m 9,7 km/h (2 Bft) W 1,4 C 1,6 C 14,8 km/h (3 Bft)
31.01.2023 13:00 4,6 C 80 % 1024,0 hPa 0,0 l/m 6,1 km/h (2 Bft) W-SW 1,5 C 4,6 C 9,7 km/h (2 Bft)
31.01.2023 14:00 5,1 C 78 % 1023,6 hPa 0,0 l/m 7,2 km/h (2 Bft) W-SW 1,6 C 4,4 C 9,7 km/h (2 Bft)
31.01.2023 15:00 5,6 C 75 % 1023,0 hPa 0,0 l/m 8,6 km/h (2 Bft) W-SW 1,5 C 3,8 C 11,2 km/h (2 Bft)
31.01.2023 16:00 5,4 C 77 % 1023,0 hPa 0,0 l/m 11,2 km/h (2 Bft) SW 1,7 C 1,7 C 14,8 km/h (3 Bft)
31.01.2023 17:00 5,1 C 78 % 1023,2 hPa 0,0 l/m 14,8 km/h (3 Bft) SW 1,6 C -0,7 C 18,4 km/h (3 Bft)
31.01.2023 18:00 4,8 C 81 % 1023,9 hPa 0,0 l/m 6,1 km/h (2 Bft) W-SW 1,8 C 4,8 C 9,7 km/h (2 Bft)
31.01.2023 19:00 5,0 C 82 % 1023,8 hPa 0,0 l/m 6,1 km/h (2 Bft) SW 2,2 C 5,0 C 7,2 km/h (2 Bft)
31.01.2023 20:00 5,0 C 82 % 1023,5 hPa 0,0 l/m 3,6 km/h (1 Bft) SW 2,2 C 5,0 C 6,1 km/h (2 Bft)
31.01.2023 21:00 5,3 C 80 % 1023,3 hPa 0,0 l/m 8,6 km/h (2 Bft) S-SW 2,1 C 3,4 C 11,2 km/h (2 Bft)
31.01.2023 22:00 5,5 C 79 % 1023,0 hPa 0,0 l/m 9,7 km/h (2 Bft) W-SW 2,2 C 2,8 C 13,3 km/h (3 Bft)
31.01.2023 23:00 5,4 C 83 % 1022,8 hPa 0,0 l/m 12,2 km/h (2 Bft) W-SW 2,7 C 1,1 C 17,3 km/h (3 Bft)
01.02.2023 00:00 5,3 C 82 % 1022,7 hPa 0,0 l/m 11,2 km/h (2 Bft) SW 2,5 C 1,6 C 17,3 km/h (3 Bft)
01.02.2023 01:00 5,3 C 81 % 1022,2 hPa 0,0 l/m 9,7 km/h (2 Bft) SW 2,3 C 2,6 C 14,8 km/h (3 Bft)
01.02.2023 02:00 5,1 C 81 % 1021,9 hPa 0,0 l/m 12,2 km/h (2 Bft) W-SW 2,1 C 0,8 C 17,3 km/h (3 Bft)
01.02.2023 03:00 4,9 C 81 % 1021,4 hPa 0,0 l/m 7,2 km/h (2 Bft) W 1,9 C 4,2 C 11,2 km/h (2 Bft)
01.02.2023 04:00 4,9 C 81 % 1021,3 hPa 0,0 l/m 13,3 km/h (3 Bft) SW 1,9 C -0,1 C 18,4 km/h (3 Bft)
01.02.2023 05:00 4,3 C 85 % 1021,8 hPa 0,0 l/m 9,7 km/h (2 Bft) S-SW 2,0 C 1,5 C 14,8 km/h (3 Bft)
01.02.2023 06:00 4,2 C 85 % 1021,8 hPa 0,0 l/m 9,7 km/h (2 Bft) SW 1,9 C 1,4 C 11,2 km/h (2 Bft)
01.02.2023 07:00 3,9 C 87 % 1022,0 hPa 0,0 l/m 7,2 km/h (2 Bft) W 1,9 C 3,2 C 9,7 km/h (2 Bft)
01.02.2023 08:00 4,1 C 87 % 1022,2 hPa 0,0 l/m 14,8 km/h (3 Bft) W-SW 2,1 C -1,9 C 20,9 km/h (4 Bft)
01.02.2023 09:00 4,1 C 89 % 1022,7 hPa 0,0 l/m 5,0 km/h (1 Bft) W 2,5 C 4,1 C 7,2 km/h (2 Bft)
01.02.2023 10:00 4,7 C 89 % 1022,8 hPa 0,0 l/m 17,3 km/h (3 Bft) W-SW 3,0 C -2,4 C 25,6 km/h (4 Bft)
01.02.2023 11:00 5,5 C 87 % 1022,9 hPa 0,0 l/m 15,8 km/h (3 Bft) W 3,5 C -0,7 C 24,5 km/h (4 Bft)
01.02.2023 12:00 5,1 C 94 % 1022,9 hPa 0,3 l/m 3,6 km/h (1 Bft) SW 4,2 C 5,1 C 3,6 km/h (1 Bft)
01.02.2023 13:00 6,4 C 82 % 1022,1 hPa 0,0 l/m 9,7 km/h (2 Bft) SW 3,6 C 3,8 C 14,8 km/h (3 Bft)
01.02.2023 14:00 6,1 C 83 % 1021,8 hPa 0,0 l/m 9,7 km/h (2 Bft) SW 3,4 C 3,5 C 13,3 km/h (3 Bft)
01.02.2023 15:00 6,2 C 78 % 1021,8 hPa 0,0 l/m 12,2 km/h (2 Bft) SW 2,7 C 2,0 C 14,8 km/h (3 Bft)
01.02.2023 16:00 6,0 C 78 % 1021,9 hPa 0,0 l/m 15,8 km/h (3 Bft) W-SW 2,5 C -0,1 C 20,9 km/h (4 Bft)
01.02.2023 17:00 5,9 C 78 % 1022,2 hPa 0,0 l/m 11,2 km/h (2 Bft) W-SW 2,4 C 2,3 C 14,8 km/h (3 Bft)
01.02.2023 18:00 5,9 C 79 % 1022,5 hPa 0,0 l/m 14,8 km/h (3 Bft) SW 2,5 C 0,3 C 20,9 km/h (4 Bft)
01.02.2023 19:00 5,7 C 81 % 1022,5 hPa 0,0 l/m 15,8 km/h (3 Bft) SW 2,7 C -0,5 C 20,9 km/h (4 Bft)
01.02.2023 20:00 5,6 C 82 % 1022,9 hPa 0,0 l/m 12,2 km/h (2 Bft) S 2,8 C 1,3 C 17,3 km/h (3 Bft)
01.02.2023 21:00 5,5 C 81 % 1023,1 hPa 0,0 l/m 13,3 km/h (3 Bft) W-SW 2,5 C 0,6 C 18,4 km/h (3 Bft)
01.02.2023 22:00 5,3 C 82 % 1023,1 hPa 0,0 l/m 12,2 km/h (2 Bft) SW 2,5 C 1,0 C 17,3 km/h (3 Bft)
01.02.2023 23:00 5,2 C 82 % 1023,2 hPa 0,0 l/m 9,7 km/h (2 Bft) W-SW 2,4 C 2,5 C 17,3 km/h (3 Bft)
02.02.2023 00:00 5,3 C 81 % 1023,3 hPa 0,0 l/m 13,3 km/h (3 Bft) SW 2,3 C 0,3 C 20,9 km/h (4 Bft)
02.02.2023 01:00 5,1 C 81 % 1023,3 hPa 0,0 l/m 11,2 km/h (2 Bft) W-SW 2,1 C 1,4 C 13,3 km/h (3 Bft)
02.02.2023 02:00 4,8 C 84 % 1023,5 hPa 0,0 l/m 13,3 km/h (3 Bft) W-SW 2,3 C -0,2 C 18,4 km/h (3 Bft)
02.02.2023 03:00 4,8 C 85 % 1023,4 hPa 0,0 l/m 17,3 km/h (3 Bft) W-SW 2,5 C -2,3 C 22,0 km/h (4 Bft)
02.02.2023 04:00 4,8 C 86 % 1023,4 hPa 0,0 l/m 12,2 km/h (2 Bft) W 2,7 C 0,4 C 17,3 km/h (3 Bft)
02.02.2023 05:00 4,9 C 86 % 1023,6 hPa 0,0 l/m 11,2 km/h (2 Bft) W-SW 2,8 C 1,1 C 14,8 km/h (3 Bft)
02.02.2023 06:00 5,0 C 85 % 1023,6 hPa 0,0 l/m 13,3 km/h (3 Bft) W 2,7 C -0,0 C 18,4 km/h (3 Bft)
02.02.2023 07:00 5,1 C 86 % 1024,1 hPa 0,0 l/m 8,6 km/h (2 Bft) W-SW 3,0 C 3,2 C 11,2 km/h (2 Bft)
02.02.2023 08:00 5,0 C 87 % 1024,4 hPa 0,0 l/m 11,2 km/h (2 Bft) W-SW 3,0 C 1,3 C 17,3 km/h (3 Bft)
02.02.2023 09:00 5,2 C 87 % 1024,2 hPa 0,0 l/m 15,8 km/h (3 Bft) SW 3,2 C -1,1 C 22,0 km/h (4 Bft)
02.02.2023 10:00 5,7 C 86 % 1024,9 hPa 0,0 l/m 9,7 km/h (2 Bft) W 3,5 C 3,1 C 14,8 km/h (3 Bft)
02.02.2023 11:00 5,7 C 88 % 1025,4 hPa 0,0 l/m 12,2 km/h (2 Bft) SW 3,9 C 1,4 C 20,9 km/h (4 Bft)
02.02.2023 12:00 6,0 C 87 % 1025,0 hPa 0,0 l/m 14,8 km/h (3 Bft) W 4,0 C 0,4 C 22,0 km/h (4 Bft)
02.02.2023 13:00 6,3 C 84 % 1025,3 hPa 0,0 l/m 15,8 km/h (3 Bft) W-SW 3,8 C 0,3 C 22,0 km/h (4 Bft)
02.02.2023 14:00 6,5 C 84 % 1024,8 hPa 0,0 l/m 12,2 km/h (2 Bft) W-SW 4,0 C 2,4 C 14,8 km/h (3 Bft)
02.02.2023 15:00 6,3 C 86 % 1025,2 hPa 0,0 l/m 11,2 km/h (2 Bft) W-SW 4,1 C 2,7 C 14,8 km/h (3 Bft)
02.02.2023 16:00 6,8 C 83 % 1025,7 hPa 0,0 l/m 7,2 km/h (2 Bft) SW 4,1 C 6,1 C 13,3 km/h (3 Bft)
02.02.2023 17:00 7,2 C 80 % 1026,1 hPa 0,0 l/m 11,2 km/h (2 Bft) W-SW 4,0 C 3,8 C 13,3 km/h (3 Bft)
02.02.2023 18:00 7,1 C 80 % 1027,0 hPa 0,0 l/m 8,6 km/h (2 Bft) W-SW 3,9 C 5,4 C 13,3 km/h (3 Bft)
02.02.2023 19:00 6,1 C 88 % 1027,6 hPa 0,0 l/m 5,0 km/h (1 Bft) W-SW 4,3 C 6,1 C 6,1 km/h (2 Bft)
02.02.2023 20:00 6,0 C 88 % 1027,7 hPa 0,3 l/m 6,1 km/h (2 Bft) W-SW 4,2 C 6,0 C 9,7 km/h (2 Bft)
02.02.2023 21:00 6,2 C 86 % 1028,0 hPa 0,0 l/m 9,7 km/h (2 Bft) W-SW 4,0 C 3,6 C 17,3 km/h (3 Bft)
02.02.2023 22:00 6,0 C 88 % 1028,0 hPa 0,0 l/m 11,2 km/h (2 Bft) W 4,2 C 2,4 C 14,8 km/h (3 Bft)
02.02.2023 23:00 5,9 C 87 % 1028,2 hPa 0,0 l/m 7,2 km/h (2 Bft) SW 3,9 C 5,2 C 11,2 km/h (2 Bft)
03.02.2023 00:00 5,7 C 86 % 1028,3 hPa 0,0 l/m 3,6 km/h (1 Bft) SW 3,5 C 5,7 C 6,1 km/h (2 Bft)
03.02.2023 01:00 5,7 C 84 % 1028,5 hPa 0,0 l/m 2,5 km/h (1 Bft) W-SW 3,2 C 5,7 C 6,1 km/h (2 Bft)
03.02.2023 02:00 5,7 C 84 % 1028,7 hPa 0,0 l/m 8,6 km/h (2 Bft) SW 3,2 C 3,9 C 11,2 km/h (2 Bft)
03.02.2023 03:00 5,8 C 83 % 1028,1 hPa 0,0 l/m 6,1 km/h (2 Bft) S-SW 3,1 C 5,8 C 9,7 km/h (2 Bft)
03.02.2023 04:00 5,6 C 83 % 1027,6 hPa 0,0 l/m 11,2 km/h (2 Bft) W-SW 2,9 C 1,9 C 14,8 km/h (3 Bft)
03.02.2023 05:00 5,7 C 82 % 1027,8 hPa 0,0 l/m 12,2 km/h (2 Bft) W-SW 2,9 C 1,4 C 18,4 km/h (3 Bft)
03.02.2023 06:00 5,5 C 84 % 1027,9 hPa 0,0 l/m 9,7 km/h (2 Bft) W 3,0 C 2,8 C 14,8 km/h (3 Bft)
03.02.2023 07:00 5,7 C 84 % 1028,4 hPa 0,0 l/m 11,2 km/h (2 Bft) S-SW 3,2 C 2,1 C 18,4 km/h (3 Bft)
03.02.2023 08:00 5,4 C 86 % 1028,2 hPa 0,0 l/m 12,2 km/h (2 Bft) SW 3,3 C 1,1 C 17,3 km/h (3 Bft)
03.02.2023 09:00 5,9 C 83 % 1028,3 hPa 0,0 l/m 15,8 km/h (3 Bft) W-SW 3,2 C -0,2 C 22,0 km/h (4 Bft)
03.02.2023 10:00 6,3 C 82 % 1029,1 hPa 0,0 l/m 12,2 km/h (2 Bft) W-SW 3,5 C 2,1 C 14,8 km/h (3 Bft)
03.02.2023 11:00 6,8 C 85 % 1029,1 hPa 0,3 l/m 11,2 km/h (2 Bft) S-SW 4,5 C 3,3 C 13,3 km/h (3 Bft)
03.02.2023 12:00 7,6 C 81 % 1028,5 hPa 0,0 l/m 14,8 km/h (3 Bft) SW 4,6 C 2,3 C 18,4 km/h (3 Bft)
03.02.2023 13:00 7,8 C 80 % 1027,8 hPa 0,0 l/m 12,2 km/h (2 Bft) SW 4,6 C 3,9 C 17,3 km/h (3 Bft)
03.02.2023 14:00 7,9 C 79 % 1027,3 hPa 0,0 l/m 11,2 km/h (2 Bft) W-SW 4,5 C 4,5 C 14,8 km/h (3 Bft)
03.02.2023 15:00 7,6 C 81 % 1027,5 hPa 0,0 l/m 11,2 km/h (2 Bft) SW 4,6 C 4,2 C 18,4 km/h (3 Bft)
03.02.2023 16:00 7,6 C 79 % 1027,3 hPa 0,0 l/m 14,8 km/h (3 Bft) SW 4,2 C 2,3 C 22,0 km/h (4 Bft)
03.02.2023 17:00 7,7 C 79 % 1027,5 hPa 0,0 l/m 11,2 km/h (2 Bft) SW 4,3 C 4,3 C 17,3 km/h (3 Bft)
03.02.2023 18:00 7,6 C 78 % 1027,9 hPa 0,0 l/m 14,8 km/h (3 Bft) SW 4,0 C 2,3 C 18,4 km/h (3 Bft)
03.02.2023 19:00 7,1 C 82 % 1027,9 hPa 0,0 l/m 14,8 km/h (3 Bft) W 4,2 C 1,7 C 18,4 km/h (3 Bft)
03.02.2023 20:00 7,4 C 79 % 1028,3 hPa 0,0 l/m 12,2 km/h (2 Bft) W 4,0 C 3,4 C 18,4 km/h (3 Bft)
03.02.2023 21:00 7,1 C 80 % 1028,3 hPa 0,0 l/m 8,6 km/h (2 Bft) W-SW 3,9 C 5,4 C 13,3 km/h (3 Bft)
03.02.2023 22:00 6,7 C 84 % 1028,8 hPa 0,0 l/m 8,6 km/h (2 Bft) W-SW 4,2 C 4,9 C 11,2 km/h (2 Bft)
03.02.2023 23:00 5,6 C 94 % 1029,1 hPa 1,2 l/m 6,1 km/h (2 Bft) W-SW 4,7 C 5,6 C 7,2 km/h (2 Bft)
04.02.2023 00:00 5,5 C 97 % 1029,0 hPa 2,7 l/m 3,6 km/h (1 Bft) W-SW 5,1 C 5,5 C 6,1 km/h (2 Bft)
04.02.2023 01:00 5,5 C 98 % 1029,1 hPa 1,5 l/m 8,6 km/h (2 Bft) W-SW 5,2 C 3,7 C 11,2 km/h (2 Bft)
04.02.2023 02:00 5,5 C 98 % 1029,0 hPa 0,3 l/m 6,1 km/h (2 Bft) W-SW 5,2 C 5,5 C 7,2 km/h (2 Bft)
04.02.2023 03:00 5,5 C 98 % 1028,7 hPa 0,9 l/m 5,0 km/h (1 Bft) N 5,2 C 5,5 C 7,2 km/h (2 Bft)
04.02.2023 04:00 5,5 C 98 % 1028,8 hPa 0,9 l/m 0,0 km/h (0 Bft) N 5,2 C 5,5 C 0,0 km/h (0 Bft)
04.02.2023 05:00 5,5 C 99 % 1028,5 hPa 0,6 l/m 0,0 km/h (0 Bft) N 5,4 C 5,5 C 0,0 km/h (0 Bft)
04.02.2023 06:00 5,7 C 99 % 1028,6 hPa 0,9 l/m 0,0 km/h (0 Bft) W-NW 5,6 C 5,7 C 0,0 km/h (0 Bft)
04.02.2023 07:00 5,7 C 99 % 1028,9 hPa 1,8 l/m 1,1 km/h (1 Bft) N 5,6 C 5,7 C 2,5 km/h (1 Bft)
04.02.2023 08:00 5,7 C 99 % 1029,4 hPa 1,5 l/m 0,0 km/h (0 Bft) N 5,6 C 5,7 C 2,5 km/h (1 Bft)
04.02.2023 09:00 6,0 C 99 % 1029,9 hPa 0,3 l/m 0,0 km/h (0 Bft) N 5,9 C 6,0 C 0,0 km/h (0 Bft)
04.02.2023 10:00 6,3 C 99 % 1030,4 hPa 0,0 l/m 0,0 km/h (0 Bft) N 6,2 C 6,3 C 0,0 km/h (0 Bft)
04.02.2023 11:00 6,6 C 99 % 1030,7 hPa 0,0 l/m 0,0 km/h (0 Bft) W 6,5 C 6,6 C 2,5 km/h (1 Bft)
04.02.2023 12:00 7,6 C 98 % 1030,4 hPa 0,0 l/m 1,1 km/h (1 Bft) W-NW 7,3 C 7,6 C 3,6 km/h (1 Bft)
04.02.2023 13:00 8,3 C 87 % 1030,6 hPa 0,0 l/m 2,5 km/h (1 Bft) W 6,3 C 8,3 C 3,6 km/h (1 Bft)
04.02.2023 14:00 8,9 C 78 % 1030,4 hPa 0,0 l/m 1,1 km/h (1 Bft) N 5,3 C 8,9 C 2,5 km/h (1 Bft)
04.02.2023 15:00 8,7 C 80 % 1031,0 hPa 0,0 l/m 1,1 km/h (1 Bft) N 5,4 C 8,7 C 2,5 km/h (1 Bft)
04.02.2023 16:00 7,9 C 83 % 1031,1 hPa 0,0 l/m 0,0 km/h (0 Bft) O-SO 5,2 C 7,9 C 0,0 km/h (0 Bft)
04.02.2023 17:00 5,8 C 94 % 1031,4 hPa 0,0 l/m 1,1 km/h (1 Bft) N 4,9 C 5,8 C 2,5 km/h (1 Bft)
04.02.2023 18:00 3,6 C 97 % 1032,0 hPa 0,0 l/m 0,0 km/h (0 Bft) N 3,2 C 3,6 C 0,0 km/h (0 Bft)
04.02.2023 19:00 2,9 C 98 % 1032,3 hPa 0,0 l/m 0,0 km/h (0 Bft) O-SO 2,6 C 2,9 C 0,0 km/h (0 Bft)
04.02.2023 20:00 2,6 C 98 % 1032,5 hPa 0,0 l/m 2,5 km/h (1 Bft) SO 2,3 C 2,6 C 6,1 km/h (2 Bft)
04.02.2023 21:00 2,3 C 97 % 1032,6 hPa 0,0 l/m 1,1 km/h (1 Bft) N 1,9 C 2,3 C 2,5 km/h (1 Bft)
04.02.2023 22:00 2,0 C 97 % 1032,8 hPa 0,0 l/m 0,0 km/h (0 Bft) N 1,6 C 2,0 C 0,0 km/h (0 Bft)
04.02.2023 23:00 2,2 C 96 % 1033,0 hPa 0,0 l/m 0,0 km/h (0 Bft) N 1,6 C 2,2 C 2,5 km/h (1 Bft)
05.02.2023 00:00 1,3 C 97 % 1032,9 hPa 0,0 l/m 0,0 km/h (0 Bft) N 0,9 C 1,3 C 2,5 km/h (1 Bft)
05.02.2023 01:00 0,7 C 98 % 1033,0 hPa 0,0 l/m 0,0 km/h (0 Bft) N 0,4 C 0,7 C 2,5 km/h (1 Bft)
05.02.2023 02:00 0,0 C 98 % 1033,2 hPa 0,0 l/m 0,0 km/h (0 Bft) N -0,3 C 0,0 C 2,5 km/h (1 Bft)
05.02.2023 03:00 -0,4 C 99 % 1032,8 hPa 0,0 l/m 0,0 km/h (0 Bft) O-SO -0,5 C -0,4 C 2,5 km/h (1 Bft)
05.02.2023 04:00 -0,5 C 99 % 1032,2 hPa 0,0 l/m 1,1 km/h (1 Bft) N -0,6 C -0,5 C 3,6 km/h (1 Bft)
05.02.2023 05:00 -0,2 C 99 % 1031,8 hPa 0,0 l/m 0,0 km/h (0 Bft) O-SO -0,3 C -0,2 C 2,5 km/h (1 Bft)
05.02.2023 06:00 0,3 C 99 % 1032,1 hPa 0,0 l/m 2,5 km/h (1 Bft) O-SO 0,2 C 0,3 C 3,6 km/h (1 Bft)
05.02.2023 07:00 0,2 C 98 % 1032,0 hPa 0,0 l/m 2,5 km/h (1 Bft) N -0,1 C 0,2 C 2,5 km/h (1 Bft)
05.02.2023 08:00 1,1 C 97 % 1032,8 hPa 0,0 l/m 0,0 km/h (0 Bft) N 0,7 C 1,1 C 0,0 km/h (0 Bft)
05.02.2023 09:00 1,3 C 97 % 1032,8 hPa 0,0 l/m 0,0 km/h (0 Bft) N 0,9 C 1,3 C 2,5 km/h (1 Bft)
05.02.2023 10:00 2,2 C 97 % 1032,3 hPa 0,0 l/m 0,0 km/h (0 Bft) N 1,8 C 2,2 C 0,0 km/h (0 Bft)
05.02.2023 11:00 2,6 C 97 % 1032,1 hPa 0,3 l/m 0,0 km/h (0 Bft) N 2,2 C 2,6 C 0,0 km/h (0 Bft)
05.02.2023 12:00 2,9 C 98 % 1031,2 hPa 1,2 l/m 0,0 km/h (0 Bft) N 2,6 C 2,9 C 0,0 km/h (0 Bft)
05.02.2023 13:00 3,5 C 98 % 1030,6 hPa 0,0 l/m 0,0 km/h (0 Bft) N 3,2 C 3,5 C 2,5 km/h (1 Bft)
05.02.2023 14:00 4,0 C 97 % 1029,6 hPa 0,0 l/m 0,0 km/h (0 Bft) N 3,6 C 4,0 C 0,0 km/h (0 Bft)
05.02.2023 15:00 3,8 C 98 % 1029,4 hPa 2,1 l/m 0,0 km/h (0 Bft) O-SO 3,5 C 3,8 C 0,0 km/h (0 Bft)
05.02.2023 16:00 3,8 C 98 % 1029,2 hPa 1,8 l/m 2,5 km/h (1 Bft) N 3,5 C 3,8 C 3,6 km/h (1 Bft)
Min-Datum _ 30.01.23 31.01.23 30.01.23 - 30.01.23 - 30.01.23 30.01.23 30.01.23
_ Min-Zeit 03:37 15:37 14:37 - 03:37 - 02:37 09:37 04:37
Minimum _ -3,8 C 75 % 1019,4 hPa - 0,0 km/h (0 Bft) - -4,7 C -6,0 C 0,0 km/h (0 Bft)
Max-Datum _ 04.02.23 04.02.23 05.02.23 04.02.23 01.02.23 - 04.02.23 04.02.23 30.01.23
_ Max-Zeit 14:37 05:37 02:37 00:37 10:37 - 12:37 14:37 13:37
Maximum _ 8,9 C 99 % 1033,2 hPa 2,7 l/m 17,3 km/h
W-SW (3 Bft)
- 7,3 C 8,9 C 25,6 km/h
SW (4 Bft)
Durchschnitt _ 4,0 C 88 % 1026,0 hPa #18,9 l/m 6,9 km/h (2 Bft) W-SW 2,1 C 2,1 C 10,1 km/h (2 Bft)
www.sexauwetter.de